Belleair Beach, FL (33786)

1:40 AM EDT on July 24, 2016 (GMT -0400)
Belleair Beach Intracoastal | | Change Station

Elev 10 ft 27.93 °N, 82.84 °W | Updated 10 minutes ago

Mostly Cloudy
Mostly Cloudy
82.2 °F
Feels Like 92 °F
N
2.7
Wind Variable Wind from SE

Today
High -- | Low -- °F
--% Chance of Precip.
Yesterday
High -- | Low -- °F
Precip. -- in
Pressure 30.04 in
Visibility 10.0 miles
Clouds Scattered Clouds 2100 ft
Mostly Cloudy 2600 ft
Mostly Cloudy 3200 ft
Heat Index 92 °F
Dew Point 78 °F
Humidity 88%
Rainfall 0.00 in
Snow Depth Not available.
6:49 AM 8:25 PM
Waning Gibbous, 79% visible
SPECI KPIE 240535Z AUTO 14010KT 10SM VCTS SCT021 BKN026 BKN032 27/22 A3004 RMK AO2 TSB19E34 T02670222
Pressure 30.04 in
Visibility 10.0 miles
Clouds Scattered Clouds 2100 ft
Mostly Cloudy 2600 ft
Mostly Cloudy 3200 ft
Heat Index 92 °F
Dew Point 78 °F
Humidity 88%
Rainfall 0.00 in
Snow Depth Not available.
6:49 AM 8:25 PM
Waning Gibbous, 79% visible
SPECI KPIE 240535Z AUTO 14010KT 10SM VCTS SCT021 BKN026 BKN032 27/22 A3004 RMK AO2 TSB19E34 T02670222

10-Day Weather Forecast

Almanac

Astronomy

Jul. 24, 2016 Rise Set
Actual Time
Civil Twilight
Nautical Twilight
Astronomical Twilight
Moon
Length of Visible Light
Length of Day
Tomorrow will be .
, % of the Moon is Illuminated

Today's Extremes

State Highs State Lows

Community

WunderPhotos

Upload Photos

1,927,031 photos uploaded!

WunderBlog® & News

Nearby

Air Quality

  Air Quality AQ Index Pollutant
Not available.

Snow Depth

Station Depth Elevation

Earthquake Activity

City Distance Mag. Time & Date
Minimum magnitude displayed is 2.5.

Coastal Water Temperatures

Place Temperature

Stations

Nearby Weather Stations

Station Location Temp. Windchill Dew Point Humidity Wind Precip. Elev Updated Type
                   

Watches & Warnings

There are currently no watches in effect.